Time;durP1;ratioP1;P1;durP2;ratioP2;P2;SDS_P1;SDS_P2;PMS_P1;PMS_P2;Temp;Humidity;BMP_temperature;BMP_pressure;BME280_temperature;BME280_humidity;BME280_pressure;Samples;Min_cycle;Max_cycle;Signal;HPM_P1;HPM_P2
2021/01/14 00:00:36;;;;;;;35.17;20.38;;;;;;;1.80;81.35;99785.94;5113293;28;20020;-65
2021/01/14 00:03:09;;;;;;;35.65;20.42;;;;;;;1.80;81.50;99775.34;5113063;28;20024;-65
2021/01/14 00:05:35;;;;;;;37.95;18.95;;;;;;;1.76;81.05;99776.50;5113200;28;20027;-65
2021/01/14 00:08:01;;;;;;;36.92;19.63;;;;;;;1.64;80.98;99745.50;5111990;28;20502;-65
2021/01/14 00:10:27;;;;;;;32.28;18.73;;;;;;;1.72;80.47;99758.25;5113300;27;20032;-65
2021/01/14 00:12:52;;;;;;;35.30;19.10;;;;;;;1.67;80.93;99755.03;5113099;28;20042;-65
2021/01/14 00:15:18;;;;;;;34.00;18.27;;;;;;;1.62;80.75;99749.19;5113163;28;20011;-64
2021/01/14 00:17:45;;;;;;;34.30;19.08;;;;;;;1.68;80.53;99749.66;5113120;28;20069;-64
2021/01/14 00:20:17;;;;;;;31.52;17.55;;;;;;;1.67;80.70;99762.97;5111615;28;20023;-65
2021/01/14 00:22:43;;;;;;;30.80;18.80;;;;;;;1.59;80.65;99734.38;5111324;28;20521;-65
2021/01/14 00:25:11;;;;;;;31.63;18.05;;;;;;;1.41;80.16;99698.50;5112849;28;20028;-64
2021/01/14 00:27:37;;;;;;;33.13;17.77;;;;;;;1.72;80.02;99751.19;5112847;28;20027;-65
2021/01/14 00:30:09;;;;;;;30.83;16.83;;;;;;;1.75;79.71;99751.00;5112632;28;20040;-65
2021/01/14 00:32:35;;;;;;;26.80;14.88;;;;;;;1.66;78.89;99724.28;5112323;28;20584;-65
2021/01/14 00:35:00;;;;;;;29.80;16.55;;;;;;;1.66;78.38;99713.72;5110688;28;20122;-65
2021/01/14 00:40:10;;;;;;;32.60;17.17;;;;;;;1.68;78.15;99712.66;5112895;28;20045;-65
2021/01/14 00:42:36;;;;;;;27.13;15.25;;;;;;;1.77;77.57;99720.03;5112488;28;20024;-65
2021/01/14 00:45:02;;;;;;;28.83;15.32;;;;;;;1.81;77.51;99718.06;5110968;28;20034;-65
2021/01/14 00:47:36;;;;;;;27.02;15.10;;;;;;;1.77;77.77;99706.81;5112189;28;20027;-65
2021/01/14 00:50:04;;;;;;;29.38;16.75;;;;;;;1.66;77.68;99685.50;5111418;28;20062;-64
2021/01/14 00:52:30;;;;;;;34.72;16.92;;;;;;;1.66;77.98;99698.72;5112218;28;20034;-64
2021/01/14 00:54:55;;;;;;;30.77;15.88;;;;;;;1.77;78.00;99706.81;5112268;28;20483;-64
2021/01/14 00:57:21;;;;;;;26.90;15.27;;;;;;;1.60;78.22;99661.22;5112395;28;20027;-65
2021/01/14 00:59:46;;;;;;;27.60;15.30;;;;;;;1.78;78.23;99690.00;5112487;28;20368;-64
2021/01/14 01:02:13;;;;;;;28.25;15.05;;;;;;;1.78;78.42;99682.06;5111911;28;20062;-64
2021/01/14 01:04:40;;;;;;;30.58;15.63;;;;;;;1.83;77.60;99684.44;5112036;28;20047;-65
2021/01/14 01:07:06;;;;;;;29.38;17.33;;;;;;;1.77;78.16;99679.53;5110897;28;20028;-65
2021/01/14 01:09:31;;;;;;;28.05;15.55;;;;;;;1.74;78.08;99675.28;5112162;28;20110;-65
2021/01/14 01:11:57;;;;;;;26.80;15.07;;;;;;;1.76;78.37;99680.47;5110838;28;20055;-65
2021/01/14 01:14:22;;;;;;;28.05;14.80;;;;;;;1.60;78.16;99650.66;5110634;28;20538;-65
2021/01/14 01:16:48;;;;;;;30.88;15.65;;;;;;;1.81;78.55;99679.25;5111714;28;20095;-64
2021/01/14 01:19:13;;;;;;;25.25;14.43;;;;;;;1.83;77.90;99684.44;5112172;28;20028;-65
2021/01/14 01:21:42;;;;;;;27.05;14.88;;;;;;;1.83;78.02;99693.22;5112057;28;20471;-65
2021/01/14 01:24:09;;;;;;;24.77;13.57;;;;;;;1.73;77.72;99660.38;5110627;28;20050;-64
2021/01/14 01:26:35;;;;;;;26.10;14.70;;;;;;;1.88;77.79;99682.38;5110701;28;20024;-65
2021/01/14 01:29:00;;;;;;;25.35;14.50;;;;;;;1.92;77.72;99682.09;5111751;28;20362;-65
2021/01/14 01:31:26;;;;;;;26.40;14.55;;;;;;;1.82;77.60;99662.47;5111604;28;20030;-66
2021/01/14 01:33:51;;;;;;;25.52;13.52;;;;;;;1.92;77.52;99668.88;5111785;28;20123;-65
2021/01/14 01:36:17;;;;;;;25.33;13.43;;;;;;;1.94;77.27;99674.88;5111905;28;20027;-65
2021/01/14 01:38:42;;;;;;;26.40;13.98;;;;;;;1.82;77.99;99653.66;5111820;28;20023;-65
2021/01/14 01:41:08;;;;;;;26.02;14.05;;;;;;;1.92;77.70;99678.56;5110452;28;20070;-65
2021/01/14 01:43:33;;;;;;;25.95;13.85;;;;;;;1.95;77.81;99681.88;5111526;28;20023;-64
2021/01/14 01:46:00;;;;;;;24.42;13.38;;;;;;;1.95;77.36;99671.31;5112320;28;20043;-65
2021/01/14 01:48:27;;;;;;;24.17;13.25;;;;;;;1.90;77.76;99668.09;5115911;28;20019;-64
2021/01/14 01:50:56;;;;;;;25.10;12.80;;;;;;;1.94;77.93;99651.09;5115922;28;20062;-65
2021/01/14 01:53:22;;;;;;;25.25;13.65;;;;;;;2.01;77.70;99673.56;5115753;28;20118;-65
2021/01/14 01:55:49;;;;;;;26.52;12.68;;;;;;;1.99;77.34;99664.88;5115723;28;20038;-65
2021/01/14 01:58:22;;;;;;;27.05;15.07;;;;;;;1.99;77.38;99658.72;5115747;28;20066;-65
2021/01/14 02:00:50;;;;;;;24.90;13.60;;;;;;;2.00;77.72;99666.56;5114536;28;20498;-64
2021/01/14 02:03:17;;;;;;;22.15;12.35;;;;;;;1.96;77.43;99662.44;5115732;28;20064;-65
2021/01/14 02:05:43;;;;;;;22.77;12.20;;;;;;;1.95;78.00;99673.97;5115763;28;20107;-65
2021/01/14 02:08:28;;;;;;;26.38;13.60;;;;;;;1.80;78.25;99656.41;5114430;28;20177;-65
2021/01/14 02:10:59;;;;;;;25.63;14.80;;;;;;;1.76;77.92;99654.03;5115352;28;20111;-65
2021/01/14 02:13:39;;;;;;;22.25;12.55;;;;;;;1.87;77.92;99657.72;5115494;27;20491;-65
2021/01/14 02:16:05;;;;;;;23.58;13.00;;;;;;;1.86;78.31;99671.88;5114077;28;20081;-65
2021/01/14 02:18:31;;;;;;;24.63;12.93;;;;;;;1.85;78.55;99654.34;5115237;28;20028;-65
2021/01/14 02:21:03;;;;;;;21.20;12.70;;;;;;;1.85;78.44;99662.28;5115317;28;20080;-65
2021/01/14 02:23:45;;;;;;;21.27;12.82;;;;;;;1.86;78.67;99657.81;5114954;28;20118;-65
2021/01/14 02:26:21;;;;;;;26.98;14.38;;;;;;;1.83;78.98;99653.56;5115115;28;20023;-65
2021/01/14 02:28:48;;;;;;;22.50;12.35;;;;;;;1.82;78.59;99645.75;5114000;28;20502;-65
2021/01/14 02:31:16;;;;;;;22.88;13.25;;;;;;;1.80;79.24;99648.47;5115326;28;20038;-65
2021/01/14 02:33:43;;;;;;;27.27;13.77;;;;;;;1.66;79.61;99614.16;5114729;28;20043;-65
2021/01/14 02:36:09;;;;;;;23.75;13.00;;;;;;;1.77;80.19;99635.44;5114827;28;20447;-65
2021/01/14 02:38:35;;;;;;;23.58;13.90;;;;;;;1.70;79.91;99623.56;5114994;28;20016;-65
2021/01/14 02:41:01;;;;;;;24.95;12.68;;;;;;;1.77;79.94;99630.16;5114802;28;20027;-65
2021/01/14 02:43:27;;;;;;;25.17;13.23;;;;;;;1.58;79.87;99597.91;5114749;28;20031;-65
2021/01/14 02:45:53;;;;;;;24.50;12.38;;;;;;;1.67;80.10;99599.97;5114764;28;20063;-65
2021/01/14 02:48:28;;;;;;;25.98;13.38;;;;;;;1.77;80.25;99605.53;5114673;28;20024;-66
2021/01/14 02:50:57;;;;;;;26.52;13.45;;;;;;;1.59;80.06;99585.56;5114649;28;20027;-66
2021/01/14 02:53:24;;;;;;;26.10;13.07;;;;;;;1.65;80.75;99590.47;5114642;28;20115;-65
2021/01/14 02:55:51;;;;;;;23.08;12.82;;;;;;;1.76;80.77;99609.13;5112665;28;20478;-65
2021/01/14 02:58:16;;;;;;;25.17;12.13;;;;;;;1.77;80.71;99594.94;5113512;28;20113;-65
2021/01/14 03:00:42;;;;;;;22.52;12.82;;;;;;;1.74;80.89;99585.44;5114497;28;20417;-65
2021/01/14 03:03:07;;;;;;;22.05;12.90;;;;;;;1.76;80.53;99578.25;5114198;27;20059;-66
2021/01/14 03:05:33;;;;;;;27.15;12.82;;;;;;;1.64;80.82;99538.53;5114205;28;20070;-65
2021/01/14 03:07:58;;;;;;;23.70;12.30;;;;;;;1.77;81.20;99571.16;5113892;28;20475;-65
2021/01/14 03:10:24;;;;;;;25.75;13.65;;;;;;;1.63;81.06;99556.19;5112362;28;20023;-65
2021/01/14 03:12:49;;;;;;;22.02;12.10;;;;;;;1.74;81.39;99576.66;5113652;28;20433;-65
2021/01/14 03:15:15;;;;;;;24.67;12.80;;;;;;;1.74;81.29;99566.94;5114076;28;20062;-66
2021/01/14 03:17:40;;;;;;;27.10;13.13;;;;;;;1.73;81.06;99552.03;5113912;28;20019;-65
2021/01/14 03:20:07;;;;;;;24.73;13.25;;;;;;;1.79;81.19;99556.06;5113952;28;20551;-65
2021/01/14 03:22:40;;;;;;;23.70;12.60;;;;;;;1.68;81.13;99538.25;5114319;28;20030;-65
2021/01/14 03:25:10;;;;;;;21.95;12.02;;;;;;;1.68;80.89;99538.25;5113954;28;20032;-65
2021/01/14 03:27:40;;;;;;;23.42;12.38;;;;;;;1.55;80.84;99507.44;5113931;28;20034;-66
2021/01/14 03:30:07;;;;;;;22.48;12.18;;;;;;;1.80;81.00;99533.97;5113870;28;20031;-65
2021/01/14 03:32:33;;;;;;;23.27;12.38;;;;;;;1.78;80.92;99534.06;5113967;28;20027;-66
2021/01/14 03:34:58;;;;;;;21.58;12.60;;;;;;;1.87;80.96;99541.41;5113610;28;20415;-65
2021/01/14 03:37:24;;;;;;;22.73;12.52;;;;;;;1.88;80.96;99536.97;5114010;28;20027;-65
2021/01/14 03:39:50;;;;;;;25.38;13.05;;;;;;;1.90;80.59;99535.06;5112446;28;20024;-66
2021/01/14 03:42:20;;;;;;;23.73;13.02;;;;;;;1.94;80.86;99542.69;5113808;28;20462;-66
2021/01/14 03:44:45;;;;;;;20.77;11.02;;;;;;;1.91;80.46;99520.91;5113333;28;20019;-66
2021/01/14 03:47:11;;;;;;;23.70;12.55;;;;;;;1.91;80.05;99518.28;5113605;28;20080;-66
2021/01/14 03:49:36;;;;;;;23.25;12.52;;;;;;;1.94;80.43;99524.19;5113273;28;20055;-66
2021/01/14 03:52:02;;;;;;;27.30;13.88;;;;;;;1.95;80.35;99514.47;5112899;28;20039;-65
2021/01/14 03:54:28;;;;;;;25.35;13.38;;;;;;;1.85;80.83;99513.38;5113032;28;20092;-65
2021/01/14 03:56:53;;;;;;;23.20;12.73;;;;;;;1.85;80.79;99514.25;5111673;28;20475;-65
2021/01/14 03:59:19;;;;;;;23.50;11.57;;;;;;;1.89;80.87;99510.44;5104810;28;20505;-65
2021/01/14 04:01:44;;;;;;;25.08;12.63;;;;;;;1.76;80.92;99487.53;5112839;28;20024;-64
2021/01/14 04:04:10;;;;;;;21.98;11.77;;;;;;;1.89;81.20;99504.28;5112438;28;20019;-64
2021/01/14 04:06:37;;;;;;;23.25;12.95;;;;;;;1.88;81.06;99503.47;5112236;28;20023;-65
2021/01/14 04:09:04;;;;;;;21.75;12.15;;;;;;;1.86;80.94;99494.78;5111657;28;20072;-65
2021/01/14 04:11:30;;;;;;;22.42;12.32;;;;;;;1.81;81.39;99480.16;5112272;28;20023;-65
2021/01/14 04:13:56;;;;;;;23.67;11.85;;;;;;;1.85;81.60;99465.78;5111786;28;20475;-65
2021/01/14 04:16:21;;;;;;;22.77;11.32;;;;;;;1.79;81.53;99461.78;5112230;28;20034;-65
2021/01/14 04:18:47;;;;;;;19.05;10.95;;;;;;;1.82;82.09;99458.94;5111869;28;20476;-65
2021/01/14 04:21:14;;;;;;;19.60;10.77;;;;;;;1.72;82.12;99441.13;5102744;28;20038;-64
2021/01/14 04:23:42;;;;;;;20.08;10.65;;;;;;;1.77;82.19;99436.38;5112189;28;20065;-65
2021/01/14 04:26:07;;;;;;;22.40;11.73;;;;;;;1.80;82.54;99437.03;5112277;28;20055;-65
2021/01/14 04:28:33;;;;;;;21.05;11.30;;;;;;;1.68;82.92;99402.66;5103828;28;20487;-65
2021/01/14 04:30:58;;;;;;;19.67;10.32;;;;;;;1.80;82.94;99420.31;5111621;28;20019;-65
2021/01/14 04:33:24;;;;;;;18.83;10.30;;;;;;;1.83;82.90;99423.59;5111759;28;20035;-65
2021/01/14 04:35:52;;;;;;;20.13;10.60;;;;;;;1.83;82.97;99442.09;5111501;28;20423;-64
2021/01/14 04:38:19;;;;;;;20.25;10.90;;;;;;;1.82;82.81;99437.78;5112777;28;20418;-65
2021/01/14 04:40:45;;;;;;;22.15;12.25;;;;;;;1.83;82.59;99436.81;5111375;28;20055;-65
2021/01/14 04:43:13;;;;;;;18.42;10.38;;;;;;;1.72;82.65;99412.06;5110970;28;20040;-66
2021/01/14 04:45:43;;;;;;;19.13;10.95;;;;;;;1.71;82.65;99405.91;5112342;28;20024;-66
2021/01/14 04:48:10;;;;;;;18.90;10.15;;;;;;;1.86;82.87;99420.75;5112388;28;20020;-66
2021/01/14 04:50:37;;;;;;;19.55;10.50;;;;;;;1.85;82.44;99426.16;5112374;28;20425;-66
2021/01/14 04:53:04;;;;;;;18.00;10.05;;;;;;;1.73;82.67;99425.16;5112347;28;20073;-66
2021/01/14 04:55:43;;;;;;;21.92;11.93;;;;;;;1.81;82.59;99444.00;5112173;28;20019;-66
2021/01/14 04:58:14;;;;;;;20.88;10.70;;;;;;;1.77;82.38;99441.66;5110781;28;20035;-65
2021/01/14 05:00:45;;;;;;;20.25;11.10;;;;;;;1.77;82.43;99439.88;5112464;28;20027;-66
2021/01/14 05:03:14;;;;;;;20.13;11.52;;;;;;;1.78;82.14;99449.47;5112230;28;20019;-66
2021/01/14 05:05:45;;;;;;;20.40;11.13;;;;;;;1.81;82.31;99470.44;5110728;28;20110;-66
2021/01/14 05:08:13;;;;;;;25.23;11.85;;;;;;;1.83;82.39;99471.19;5111871;28;20027;-66
2021/01/14 05:10:39;;;;;;;24.35;12.45;;;;;;;1.82;82.14;99458.94;5111616;28;20016;-66
2021/01/14 05:13:05;;;;;;;24.08;13.13;;;;;;;1.82;82.35;99444.84;5111445;28;20024;-66
2021/01/14 05:15:31;;;;;;;26.83;13.73;;;;;;;1.80;82.44;99454.66;5111861;28;20103;-66
2021/01/14 05:17:58;;;;;;;23.92;13.05;;;;;;;1.82;82.15;99451.00;5111562;28;20015;-65
2021/01/14 05:20:25;;;;;;;24.42;12.48;;;;;;;1.75;82.63;99460.28;5111067;28;20026;-65
2021/01/14 05:23:01;;;;;;;29.20;13.77;;;;;;;1.48;82.81;99429.53;5111328;28;20024;-66
2021/01/14 05:25:28;;;;;;;24.58;13.32;;;;;;;1.52;83.73;99433.66;5111292;28;20047;-66
2021/01/14 05:27:53;;;;;;;26.00;13.43;;;;;;;1.51;84.38;99438.09;5111502;28;20534;-66
2021/01/14 05:30:21;;;;;;;24.17;13.50;;;;;;;1.44;84.71;99447.38;5110262;28;20110;-65
2021/01/14 05:32:48;;;;;;;27.73;13.70;;;;;;;1.25;85.07;99438.06;5108772;28;20458;-66
2021/01/14 05:35:16;;;;;;;27.77;14.25;;;;;;;1.22;86.29;99446.19;5111003;28;20074;-65
2021/01/14 05:37:44;;;;;;;27.52;14.60;;;;;;;1.02;86.69;99425.47;5111284;28;20035;-66
2021/01/14 05:40:23;;;;;;;25.10;13.52;;;;;;;0.93;87.09;99432.19;5109017;28;20031;-66
2021/01/14 05:43:04;;;;;;;25.95;14.80;;;;;;;0.98;87.46;99432.78;5108744;28;20031;-65
2021/01/14 05:45:30;;;;;;;26.58;13.70;;;;;;;0.85;88.20;99421.28;5109754;28;20561;-66
2021/01/14 05:48:13;;;;;;;28.63;14.30;;;;;;;0.94;88.77;99436.56;5111517;28;20059;-66
2021/01/14 05:50:43;;;;;;;26.85;14.35;;;;;;;0.92;89.43;99416.47;5110105;28;20032;-65
2021/01/14 05:53:19;;;;;;;30.35;14.68;;;;;;;0.79;89.10;99391.78;5097140;28;20522;-65
2021/01/14 05:55:51;;;;;;;24.40;13.40;;;;;;;0.87;89.13;99400.09;5090881;28;20373;-65
2021/01/14 05:58:19;;;;;;;24.92;13.07;;;;;;;0.81;89.12;99388.09;5090869;28;20031;-65
2021/01/14 06:00:47;;;;;;;24.95;14.05;;;;;;;0.83;89.15;99388.00;5090974;28;20111;-65
2021/01/14 06:03:24;;;;;;;25.75;14.07;;;;;;;0.92;88.79;99404.13;5089867;28;20060;-65
2021/01/14 06:05:50;;;;;;;26.65;13.55;;;;;;;0.94;88.82;99407.53;5091158;28;20028;-65
2021/01/14 06:08:22;;;;;;;22.00;12.68;;;;;;;0.73;88.15;99371.06;5090842;28;20383;-65
2021/01/14 06:10:47;;;;;;;25.20;13.20;;;;;;;0.97;87.64;99409.09;5090955;28;20028;-65
2021/01/14 06:13:14;;;;;;;26.45;13.38;;;;;;;0.89;87.60;99406.94;5090858;28;20082;-65
2021/01/14 06:15:40;;;;;;;24.83;12.73;;;;;;;0.93;87.52;99415.53;5090374;28;20099;-65
2021/01/14 06:18:10;;;;;;;25.92;13.63;;;;;;;0.84;87.24;99416.09;5090561;28;20135;-65
2021/01/14 06:20:52;;;;;;;26.35;14.20;;;;;;;0.87;87.23;99421.19;5090712;28;20103;-65
2021/01/14 06:23:25;;;;;;;27.85;14.52;;;;;;;0.80;87.18;99427.81;5091553;28;20032;-65
2021/01/14 06:25:53;;;;;;;24.75;13.30;;;;;;;0.77;88.16;99425.34;5091917;28;20055;-65
2021/01/14 06:28:21;;;;;;;31.13;13.73;;;;;;;0.70;88.58;99422.22;5091746;28;20554;-65
2021/01/14 06:30:57;;;;;;;26.15;14.20;;;;;;;0.75;88.78;99429.88;5090538;28;20020;-65
2021/01/14 06:33:25;;;;;;;30.63;14.35;;;;;;;0.74;88.97;99433.47;5094982;28;20550;-65
2021/01/14 06:36:09;;;;;;;25.67;13.90;;;;;;;0.69;89.19;99424.97;5094233;28;20032;-66
2021/01/14 06:38:48;;;;;;;24.83;14.15;;;;;;;0.74;89.50;99430.81;5094002;28;20032;-66
2021/01/14 06:41:19;;;;;;;30.38;15.65;;;;;;;0.77;89.74;99436.72;5095166;28;20543;-65
2021/01/14 06:43:46;;;;;;;35.05;15.68;;;;;;;0.83;89.58;99432.84;5094977;28;20024;-65
2021/01/14 06:46:34;;;;;;;33.28;15.60;;;;;;;0.82;89.39;99431.19;5094977;28;20551;-65
2021/01/14 06:49:06;;;;;;;29.67;16.40;;;;;;;0.94;89.06;99448.91;5106913;28;20084;-66
2021/01/14 06:51:56;;;;;;;31.20;16.08;;;;;;;0.95;88.91;99440.03;5115086;28;20049;-66
2021/01/14 06:54:26;;;;;;;33.92;17.35;;;;;;;0.97;88.37;99438.97;5112309;28;20028;-66
2021/01/14 06:57:15;;;;;;;37.80;17.55;;;;;;;1.08;87.67;99441.81;5114719;28;20050;-66
2021/01/14 06:59:41;;;;;;;34.70;16.77;;;;;;;1.04;87.32;99429.75;5110155;28;20027;-66
2021/01/14 07:02:07;;;;;;;30.70;15.88;;;;;;;1.19;86.36;99439.31;5114734;28;20042;-65
2021/01/14 07:05:01;;;;;;;33.78;16.98;;;;;;;1.19;86.41;99452.50;5114903;28;20019;-65
2021/01/14 07:07:26;;;;;;;32.10;15.25;;;;;;;1.17;86.78;99443.00;5114991;28;20036;-65
2021/01/14 07:10:09;;;;;;;31.95;15.70;;;;;;;1.21;87.35;99440.06;5113921;28;20042;-65
2021/01/14 07:12:39;;;;;;;29.65;15.65;;;;;;;1.12;86.84;99429.22;5114619;28;20035;-65
2021/01/14 07:15:13;;;;;;;30.42;15.20;;;;;;;1.31;87.24;99457.03;5114845;28;20026;-65
2021/01/14 07:17:41;;;;;;;32.20;15.35;;;;;;;1.32;87.64;99447.31;5113466;28;20156;-65
2021/01/14 07:20:19;;;;;;;30.20;15.20;;;;;;;1.31;88.74;99438.53;5114812;28;20400;-66
2021/01/14 07:22:59;;;;;;;29.70;15.85;;;;;;;1.38;89.78;99446.91;5114848;28;20031;-64
2021/01/14 07:25:26;;;;;;;26.52;14.27;;;;;;;1.35;90.00;99433.91;5114522;28;20059;-64
2021/01/14 07:27:52;;;;;;;25.98;14.15;;;;;;;1.35;90.74;99426.00;5111559;28;20439;-64
2021/01/14 07:30:20;;;;;;;31.58;16.40;;;;;;;1.28;92.04;99414.97;5112422;28;20062;-65
2021/01/14 07:32:56;;;;;;;26.17;14.60;;;;;;;1.43;92.65;99437.75;5114230;28;20023;-64
2021/01/14 07:35:44;;;;;;;28.90;15.82;;;;;;;1.46;93.17;99434.06;5104496;28;20126;-64
2021/01/14 07:38:15;;;;;;;28.13;13.38;;;;;;;1.48;93.48;99448.84;5110777;28;20147;-65
2021/01/14 07:40:42;;;;;;;26.70;14.35;;;;;;;1.52;93.69;99441.59;5114086;28;20077;-64
2021/01/14 07:43:11;;;;;;;27.35;15.55;;;;;;;1.50;93.51;99438.19;5113876;28;20055;-65
2021/01/14 07:45:36;;;;;;;26.73;15.68;;;;;;;1.59;93.24;99446.38;5112891;28;20110;-65
2021/01/14 07:48:18;;;;;;;30.15;15.70;;;;;;;1.56;93.62;99446.56;5113259;28;20103;-65
2021/01/14 07:50:51;;;;;;;27.02;15.57;;;;;;;1.58;94.27;99435.91;5112773;28;20043;-64
2021/01/14 07:53:18;;;;;;;28.48;15.98;;;;;;;1.53;94.66;99433.56;5113205;28;20016;-64
2021/01/14 07:55:44;;;;;;;27.65;16.02;;;;;;;1.51;95.28;99424.88;5112747;27;20093;-64
2021/01/14 07:58:22;;;;;;;30.65;17.27;;;;;;;1.51;95.73;99427.53;5112064;28;20024;-65
2021/01/14 08:01:07;;;;;;;31.75;16.77;;;;;;;1.52;96.80;99426.56;5112766;28;20110;-65
2021/01/14 08:03:33;;;;;;;34.35;17.42;;;;;;;1.25;96.91;99378.19;5113312;28;20016;-65
2021/01/14 08:06:00;;;;;;;31.05;17.52;;;;;;;1.52;97.07;99415.16;5113488;28;20098;-64
2021/01/14 08:08:36;;;;;;;30.38;17.08;;;;;;;1.52;96.33;99404.59;5113674;28;20055;-65
2021/01/14 08:11:23;;;;;;;31.50;17.38;;;;;;;1.53;96.43;99406.28;5113704;28;20020;-64
2021/01/14 08:14:13;;;;;;;32.47;18.40;;;;;;;1.60;96.34;99426.06;5113768;28;20181;-64
2021/01/14 08:16:47;;;;;;;37.28;19.48;;;;;;;1.64;96.70;99438.13;5113728;28;20464;-64
2021/01/14 08:19:15;;;;;;;37.45;19.75;;;;;;;1.61;97.20;99431.25;5113560;28;20042;-65
2021/01/14 08:21:42;;;;;;;36.20;19.30;;;;;;;1.70;96.48;99443.00;5113565;28;20115;-65
2021/01/14 08:24:09;;;;;;;32.83;18.35;;;;;;;1.75;96.19;99446.22;5112094;28;20024;-65
2021/01/14 08:26:54;;;;;;;33.72;18.70;;;;;;;1.68;96.28;99421.16;5113510;28;20039;-65
2021/01/14 08:29:33;;;;;;;32.67;18.52;;;;;;;1.64;96.12;99423.13;5113274;28;20035;-65
2021/01/14 08:31:59;;;;;;;35.47;19.52;;;;;;;1.84;96.46;99469.41;5113361;28;20023;-65
2021/01/14 08:34:25;;;;;;;32.00;18.27;;;;;;;1.77;96.55;99445.16;5113244;28;20480;-65
2021/01/14 08:36:54;;;;;;;31.90;17.88;;;;;;;1.89;96.00;99454.91;5111870;28;20122;-65
2021/01/14 08:39:24;;;;;;;36.03;20.67;;;;;;;2.03;95.27;99476.00;5113299;28;20105;-65
2021/01/14 08:41:51;;;;;;;31.15;18.02;;;;;;;2.05;94.75;99473.25;5113157;28;20031;-66
2021/01/14 08:44:17;;;;;;;30.42;18.67;;;;;;;2.01;94.80;99466.47;5113085;28;20454;-65
2021/01/14 08:46:48;;;;;;;35.67;19.52;;;;;;;2.12;94.51;99477.16;5112962;28;20110;-65
2021/01/14 08:49:15;;;;;;;30.70;19.10;;;;;;;2.00;94.78;99468.25;5112997;28;20516;-65
2021/01/14 08:51:42;;;;;;;28.20;18.20;;;;;;;2.01;94.81;99458.53;5113025;28;20034;-65
2021/01/14 08:54:09;;;;;;;32.67;17.88;;;;;;;1.97;94.79;99452.59;5111338;28;20016;-65
2021/01/14 08:56:36;;;;;;;27.55;17.35;;;;;;;2.05;94.17;99452.09;5112947;28;20038;-65
2021/01/14 08:59:15;;;;;;;26.83;16.25;;;;;;;2.15;94.67;99479.63;5111547;28;20104;-65
2021/01/14 09:01:41;;;;;;;28.88;17.30;;;;;;;2.18;94.63;99474.97;5112793;28;20028;-66
2021/01/14 09:04:09;;;;;;;29.42;15.75;;;;;;;2.20;94.11;99462.47;5112750;28;20016;-65
2021/01/14 09:06:39;;;;;;;26.92;15.27;;;;;;;2.16;93.78;99453.06;5112808;28;20348;-65
2021/01/14 09:09:10;;;;;;;23.70;14.13;;;;;;;2.31;93.63;99478.50;5112813;28;20554;-66
2021/01/14 09:11:37;;;;;;;24.35;14.98;;;;;;;2.24;93.21;99458.69;5112816;28;20024;-66
2021/01/14 09:14:06;;;;;;;23.58;14.13;;;;;;;2.34;92.92;99465.06;5111186;28;20031;-66
2021/01/14 09:16:32;;;;;;;21.92;13.43;;;;;;;2.44;92.95;99470.56;5112777;28;20031;-66
2021/01/14 09:18:58;;;;;;;22.95;13.13;;;;;;;2.51;92.47;99476.28;5112690;28;20055;-65
2021/01/14 09:21:24;;;;;;;21.77;13.60;;;;;;;2.66;90.73;99469.94;5112632;28;20096;-65
2021/01/14 09:23:49;;;;;;;17.42;10.73;;;;;;;2.66;89.42;99485.81;5111115;28;20517;-65
2021/01/14 09:26:20;;;;;;;19.20;11.65;;;;;;;2.75;89.46;99464.00;5112663;28;20023;-65
2021/01/14 09:28:53;;;;;;;17.38;11.20;;;;;;;2.81;87.82;99469.72;5112393;28;20020;-65
2021/01/14 09:31:20;;;;;;;17.52;9.80;;;;;;;2.79;88.30;99474.28;5112512;28;20115;-65
2021/01/14 09:33:48;;;;;;;16.27;9.68;;;;;;;2.81;88.35;99468.88;5112292;28;20395;-65
2021/01/14 09:36:18;;;;;;;17.80;9.93;;;;;;;2.77;87.85;99452.34;5112329;28;20031;-65
2021/01/14 09:38:48;;;;;;;16.25;8.55;;;;;;;2.94;85.88;99469.72;5112453;28;20032;-65
2021/01/14 09:41:23;;;;;;;14.13;9.15;;;;;;;2.92;84.13;99448.63;5112384;28;20019;-65
2021/01/14 09:43:50;;;;;;;14.18;8.70;;;;;;;3.02;83.51;99462.06;5111024;28;20122;-65
2021/01/14 09:46:16;;;;;;;11.95;8.50;;;;;;;3.04;81.48;99461.00;5112552;28;20363;-65
2021/01/14 09:48:42;;;;;;;15.90;8.45;;;;;;;2.85;80.88;99427.97;5112287;28;20040;-64
2021/01/14 09:51:09;;;;;;;12.25;7.80;;;;;;;3.02;80.45;99468.22;5112439;28;20058;-65
2021/01/14 09:53:40;;;;;;;13.10;7.25;;;;;;;3.06;79.50;99461.72;5112193;28;20077;-66
2021/01/14 09:56:09;;;;;;;11.27;7.25;;;;;;;3.04;79.80;99462.81;5112366;28;20503;-66
2021/01/14 09:58:37;;;;;;;12.88;6.97;;;;;;;3.06;78.28;99482.91;5112395;28;20026;-65
2021/01/14 10:01:06;;;;;;;11.90;7.40;;;;;;;3.04;77.18;99471.59;5112254;28;20387;-65
2021/01/14 10:03:33;;;;;;;12.00;6.85;;;;;;;3.10;77.33;99480.91;5111993;28;20077;-65
2021/01/14 10:06:00;;;;;;;9.10;5.63;;;;;;;3.13;76.18;99486.00;5112540;28;20059;-66
2021/01/14 10:08:27;;;;;;;8.60;5.43;;;;;;;3.19;74.89;99494.34;5116183;28;20024;-65
2021/01/14 10:10:53;;;;;;;8.02;5.38;;;;;;;3.23;74.49;99484.38;5116024;28;20040;-65
2021/01/14 10:13:18;;;;;;;7.63;4.90;;;;;;;3.14;73.83;99453.25;5116156;28;20019;-65
2021/01/14 10:15:47;;;;;;;8.13;4.85;;;;;;;3.37;72.83;99476.28;5116112;28;20460;-65
2021/01/14 10:18:26;;;;;;;10.35;4.43;;;;;;;3.46;72.94;99478.28;5115981;28;20077;-65
2021/01/14 10:20:59;;;;;;;7.03;5.10;;;;;;;3.49;72.20;99468.31;5115898;28;20356;-65
2021/01/14 10:23:25;;;;;;;8.80;4.77;;;;;;;3.39;72.60;99448.72;5115855;28;20031;-65
2021/01/14 10:25:51;;;;;;;9.52;4.80;;;;;;;3.56;71.74;99463.41;5115904;28;20406;-65
2021/01/14 10:28:17;;;;;;;7.50;4.93;;;;;;;3.51;71.11;99447.81;5115823;28;20416;-65
2021/01/14 10:30:42;;;;;;;6.47;4.28;;;;;;;3.57;70.65;99452.69;5115486;27;20114;-65
2021/01/14 10:33:09;;;;;;;7.30;4.05;;;;;;;3.58;69.60;99449.06;5115286;28;20037;-65
2021/01/14 10:35:36;;;;;;;5.82;4.05;;;;;;;3.58;69.30;99449.06;5115160;28;20034;-65
2021/01/14 10:38:03;;;;;;;4.57;3.72;;;;;;;3.71;68.00;99454.34;5115602;28;20034;-65
2021/01/14 10:40:46;;;;;;;7.13;3.83;;;;;;;3.63;68.33;99446.09;5115734;28;20024;-65
2021/01/14 10:43:16;;;;;;;10.30;4.47;;;;;;;3.56;67.88;99432.44;5115442;27;20038;-65
2021/01/14 10:45:43;;;;;;;5.38;3.50;;;;;;;3.45;67.16;99407.69;5115231;28;20432;-65
2021/01/14 10:48:11;;;;;;;6.25;3.65;;;;;;;3.66;66.57;99454.66;5114132;28;20038;-65
2021/01/14 10:50:58;;;;;;;4.30;3.17;;;;;;;3.75;65.68;99439.88;5115198;28;20032;-65
2021/01/14 10:53:34;;;;;;;5.18;3.33;;;;;;;3.79;65.38;99439.53;5115395;28;20050;-65
2021/01/14 10:56:06;;;;;;;6.53;2.78;;;;;;;3.81;65.22;99447.41;5115230;28;20073;-66
2021/01/14 10:58:32;;;;;;;6.30;2.65;;;;;;;3.79;65.15;99449.31;5114977;28;20043;-65
2021/01/14 11:00:58;;;;;;;7.47;3.53;;;;;;;3.77;65.02;99443.28;5114858;28;20039;-65
2021/01/14 11:03:26;;;;;;;5.28;2.80;;;;;;;3.89;63.24;99455.59;5114985;28;20031;-65
2021/01/14 11:05:59;;;;;;;3.38;2.35;;;;;;;3.80;63.59;99456.28;5114523;28;20015;-66
2021/01/14 11:08:38;;;;;;;3.20;2.20;;;;;;;3.88;62.11;99445.97;5114686;28;20552;-65
2021/01/14 11:11:10;;;;;;;5.60;2.60;;;;;;;3.94;61.68;99453.47;5113729;28;20035;-65
2021/01/14 11:13:37;;;;;;;4.78;2.60;;;;;;;3.82;61.23;99438.47;5110914;28;20058;-66
2021/01/14 11:16:04;;;;;;;3.90;1.90;;;;;;;3.94;61.45;99461.44;5112162;27;20065;-65
2021/01/14 11:18:29;;;;;;;4.22;2.20;;;;;;;3.87;61.52;99446.94;5111230;28;20456;-66
2021/01/14 11:20:55;;;;;;;4.20;2.40;;;;;;;3.82;61.99;99459.69;5110804;28;20104;-65
2021/01/14 11:23:20;;;;;;;3.65;2.55;;;;;;;3.93;62.05;99457.91;5112090;28;20024;-65
2021/01/14 11:25:46;;;;;;;5.30;2.20;;;;;;;3.91;61.77;99459.00;5105938;28;20039;-64
2021/01/14 11:28:11;;;;;;;4.00;2.90;;;;;;;3.66;61.84;99429.94;5109239;28;20038;-64
2021/01/14 11:30:37;;;;;;;4.03;2.25;;;;;;;3.89;61.95;99475.03;5103906;28;20127;-64
2021/01/14 11:33:02;;;;;;;4.35;2.53;;;;;;;3.73;62.39;99447.09;5110882;28;20547;-64
2021/01/14 11:35:28;;;;;;;3.88;2.40;;;;;;;3.96;62.13;99489.53;5100503;28;20036;-64
2021/01/14 11:37:53;;;;;;;4.00;2.78;;;;;;;3.95;62.32;99486.97;5107884;28;20118;-65